KBLI

Bellingham International Airport

Airport
ICAO code
KBLI
IATA Code
BLI
Summary
ICAO Region
NAM
ICAO Territory
Location

Bellingham , Washington

Serving
Vancouver, BC and Bellingham WA
Elevation
170 ft
Coordinates
48° 47' 44" N , 122° 32' 15" W
KCC
Metar
KBLI 192153Z 30007KT 10SM CLR 23/12 A2999 RMK AO2 SLP161 T02280122

Description

Bellingham International Airport is a public use airport located 3 nm northwest of Bellingham, in Whatcom County, Washington, USA.

 

Airport map

Aerial View

SKYbrary Partners:

Safety knowledge contributed by: